createdAt,value
2018-12-19T00:02:04.474Z,2.20
2018-12-19T00:04:32.522Z,2.33
2018-12-19T00:07:00.683Z,2.28
2018-12-19T00:09:28.859Z,2.32
2018-12-19T00:11:56.943Z,2.39
2018-12-19T00:14:25.146Z,2.41
2018-12-19T00:16:53.174Z,2.45
2018-12-19T00:19:21.259Z,2.43
2018-12-19T00:21:49.334Z,2.17
2018-12-19T00:24:17.410Z,2.16
2018-12-19T00:26:45.595Z,2.14
2018-12-19T00:29:13.712Z,2.14
2018-12-19T00:31:41.818Z,2.36
2018-12-19T00:34:09.891Z,2.31
2018-12-19T00:36:38.091Z,2.43
2018-12-19T00:39:09.781Z,2.55
2018-12-19T00:41:38.297Z,2.65
2018-12-19T00:44:06.363Z,2.74
2018-12-19T00:46:34.474Z,2.73
2018-12-19T00:49:02.614Z,2.67
2018-12-19T00:51:30.715Z,2.77
2018-12-19T00:53:58.942Z,2.76
2018-12-19T00:56:27.314Z,2.74
2018-12-19T00:58:55.418Z,2.82
2018-12-19T01:01:23.462Z,2.81
2018-12-19T01:03:52.108Z,2.93
2018-12-19T01:06:20.770Z,2.71
2018-12-19T01:08:48.851Z,2.35
2018-12-19T01:11:16.923Z,2.14
2018-12-19T01:13:45.282Z,2.25
2018-12-19T01:16:13.479Z,2.32
2018-12-19T01:18:41.963Z,2.46
2018-12-19T01:21:10.042Z,2.58
2018-12-19T01:23:38.095Z,2.77
2018-12-19T01:26:06.339Z,2.66
2018-12-19T01:28:34.398Z,2.78
2018-12-19T01:31:02.491Z,2.86
2018-12-19T01:33:30.608Z,2.89
2018-12-19T01:35:59.075Z,2.91
2018-12-19T01:38:27.146Z,2.98
2018-12-19T01:40:55.222Z,3.04
2018-12-19T01:43:23.271Z,3.14
2018-12-19T01:45:51.567Z,3.20
2018-12-19T01:48:19.623Z,3.21
2018-12-19T01:50:47.684Z,3.34
2018-12-19T01:53:15.779Z,3.35
2018-12-19T01:55:44.050Z,3.45
2018-12-19T01:58:12.636Z,3.32
2018-12-19T02:00:40.706Z,3.25
2018-12-19T02:03:08.742Z,3.09
2018-12-19T02:05:36.815Z,3.03
2018-12-19T02:08:04.899Z,2.87
2018-12-19T02:10:33.087Z,3.09
2018-12-19T02:13:01.258Z,3.18
2018-12-19T02:15:29.339Z,3.35
2018-12-19T02:17:57.411Z,3.45
2018-12-19T02:20:25.478Z,3.64
2018-12-19T02:22:53.554Z,3.69
2018-12-19T02:25:21.598Z,3.77
2018-12-19T02:27:49.698Z,3.87
2018-12-19T02:30:17.771Z,3.85
2018-12-19T02:32:45.847Z,3.58
2018-12-19T02:35:14.123Z,3.48
2018-12-19T02:37:42.159Z,3.77
2018-12-19T02:40:10.251Z,4.61
2018-12-19T02:42:38.323Z,4.92
2018-12-19T02:45:06.747Z,5.15
2018-12-19T02:47:35.695Z,5.42
2018-12-19T02:50:05.799Z,5.72
2018-12-19T02:52:33.879Z,5.85
2018-12-19T02:55:01.948Z,6.00
2018-12-19T02:57:30.023Z,6.25
2018-12-19T02:59:58.098Z,6.29
2018-12-19T03:02:26.165Z,6.47
2018-12-19T03:04:54.385Z,6.40
2018-12-19T03:07:22.431Z,6.42
2018-12-19T03:09:50.480Z,6.31
2018-12-19T03:12:19.066Z,6.44
2018-12-19T03:14:47.138Z,6.51
2018-12-19T03:17:15.166Z,6.54
2018-12-19T03:19:43.279Z,6.62
2018-12-19T03:22:11.410Z,6.59
2018-12-19T03:24:39.486Z,6.64
2018-12-19T03:27:07.555Z,6.69
2018-12-19T03:29:35.639Z,6.39
2018-12-19T03:32:03.736Z,6.32
2018-12-19T03:34:31.998Z,6.21
2018-12-19T03:37:00.060Z,6.20
2018-12-19T03:39:28.132Z,6.19
2018-12-19T03:41:56.429Z,6.16
2018-12-19T03:44:24.467Z,6.35
2018-12-19T03:46:52.570Z,6.48
2018-12-19T03:49:20.847Z,6.53
2018-12-19T03:51:49.284Z,6.53
2018-12-19T03:54:17.445Z,6.52
2018-12-19T03:56:46.107Z,6.50
2018-12-19T03:59:14.259Z,6.60
2018-12-19T04:01:42.331Z,6.53
2018-12-19T04:04:10.586Z,6.42
2018-12-19T04:06:38.631Z,6.41
2018-12-19T04:09:06.962Z,6.31
2018-12-19T04:11:35.231Z,6.24
2018-12-19T04:14:03.307Z,6.32
2018-12-19T04:16:31.354Z,6.21
2018-12-19T04:18:59.654Z,6.19
2018-12-19T04:21:27.707Z,6.17
2018-12-19T04:23:55.897Z,6.06
2018-12-19T04:26:24.076Z,5.94
2018-12-19T04:28:52.142Z,5.89
2018-12-19T04:31:20.222Z,5.68
2018-12-19T04:33:48.396Z,5.65
2018-12-19T04:36:16.648Z,5.60
2018-12-19T04:38:45.104Z,5.57
2018-12-19T04:41:13.318Z,5.61
2018-12-19T04:43:41.365Z,5.61
2018-12-19T04:46:09.536Z,5.65
2018-12-19T04:48:37.639Z,5.53
2018-12-19T04:51:05.684Z,5.63
2018-12-19T04:53:33.831Z,5.67
2018-12-19T04:56:02.007Z,5.72
2018-12-19T04:58:30.031Z,5.76
2018-12-19T05:00:58.222Z,5.87
2018-12-19T05:03:26.372Z,5.86
2018-12-19T05:05:54.610Z,5.90
2018-12-19T05:08:22.922Z,6.09
2018-12-19T05:10:51.006Z,6.06
2018-12-19T05:13:19.160Z,6.13
2018-12-19T05:15:47.338Z,6.16
2018-12-19T05:18:15.511Z,6.23
2018-12-19T05:20:43.588Z,6.22
2018-12-19T05:23:11.659Z,6.22
2018-12-19T05:25:39.751Z,6.27
2018-12-19T05:28:07.906Z,6.32
2018-12-19T05:30:35.975Z,6.30
2018-12-19T05:33:04.118Z,6.25
2018-12-19T05:35:32.223Z,6.29
2018-12-19T05:38:00.266Z,6.14
2018-12-19T05:40:28.467Z,6.23
2018-12-19T05:42:56.558Z,6.17
2018-12-19T05:45:24.619Z,6.16
2018-12-19T05:47:52.735Z,6.11
2018-12-19T05:50:21.726Z,6.03
2018-12-19T05:52:49.824Z,5.98
2018-12-19T05:55:17.862Z,6.07
2018-12-19T05:57:46.003Z,6.03
2018-12-19T06:00:14.344Z,6.06
2018-12-19T06:02:42.495Z,6.04
2018-12-19T06:05:10.599Z,6.03
2018-12-19T06:07:38.754Z,6.02
2018-12-19T06:10:07.171Z,6.09
2018-12-19T06:12:35.230Z,6.14
2018-12-19T06:15:04.226Z,6.11
2018-12-19T06:17:32.272Z,6.16
2018-12-19T06:20:00.811Z,6.12
2018-12-19T06:22:28.961Z,6.09
2018-12-19T06:24:57.003Z,6.19
2018-12-19T06:27:25.529Z,6.19
2018-12-19T06:29:54.196Z,6.18
2018-12-19T06:32:22.263Z,6.18
2018-12-19T06:34:50.334Z,6.19
2018-12-19T06:37:18.406Z,6.16
2018-12-19T06:39:46.524Z,6.13
2018-12-19T06:42:14.560Z,6.18
2018-12-19T06:44:42.828Z,6.14
2018-12-19T06:47:10.901Z,6.09
2018-12-19T06:49:39.039Z,6.13
2018-12-19T06:52:07.125Z,6.14
2018-12-19T06:54:35.191Z,6.17
2018-12-19T06:57:03.252Z,6.19
2018-12-19T06:59:31.303Z,6.19
2018-12-19T07:01:59.430Z,6.20
2018-12-19T07:04:27.920Z,6.24
2018-12-19T07:06:56.553Z,6.23
2018-12-19T07:09:24.707Z,6.19
2018-12-19T07:11:52.754Z,6.16
2018-12-19T07:14:20.911Z,6.20
2018-12-19T07:16:48.984Z,6.19
2018-12-19T07:19:17.072Z,6.22
2018-12-19T07:21:45.107Z,6.26
2018-12-19T07:24:13.279Z,6.29
2018-12-19T07:26:41.326Z,6.26
2018-12-19T07:29:09.527Z,6.30
2018-12-19T07:31:37.606Z,6.30
2018-12-19T07:34:05.667Z,6.36
2018-12-19T07:36:33.743Z,6.34
2018-12-19T07:39:01.798Z,6.34
2018-12-19T07:41:29.883Z,6.39
2018-12-19T07:43:58.022Z,6.45
2018-12-19T07:46:26.118Z,6.48
2018-12-19T07:48:54.219Z,6.46
2018-12-19T07:51:22.303Z,6.49
2018-12-19T07:53:50.378Z,6.46
2018-12-19T07:56:22.988Z,6.58
2018-12-19T07:58:51.131Z,6.61
2018-12-19T08:01:19.291Z,6.64
2018-12-19T08:03:47.672Z,6.61
2018-12-19T08:06:15.756Z,6.64
2018-12-19T08:08:43.919Z,6.66
2018-12-19T08:11:11.992Z,6.71
2018-12-19T08:13:40.055Z,6.66
2018-12-19T08:16:08.173Z,6.75
2018-12-19T08:18:36.191Z,6.75
2018-12-19T08:21:04.274Z,6.72
2018-12-19T08:23:32.458Z,6.71
2018-12-19T08:26:00.702Z,6.76
2018-12-19T08:28:28.926Z,6.69
2018-12-19T08:30:57.013Z,6.73
2018-12-19T08:33:25.069Z,6.81
2018-12-19T08:35:53.152Z,6.78
2018-12-19T08:38:21.470Z,6.76
2018-12-19T08:40:49.966Z,6.86
2018-12-19T08:43:18.038Z,6.87
2018-12-19T08:45:46.871Z,6.86
2018-12-19T08:48:14.967Z,6.89
2018-12-19T08:50:43.218Z,6.98
2018-12-19T08:53:11.367Z,6.99
2018-12-19T08:55:39.519Z,7.00
2018-12-19T08:58:07.667Z,7.02
2018-12-19T09:00:37.599Z,7.04
2018-12-19T09:03:05.786Z,7.11
2018-12-19T09:05:39.999Z,7.11
2018-12-19T09:08:08.068Z,7.15
2018-12-19T09:10:36.902Z,7.15
2018-12-19T09:13:05.002Z,7.15
2018-12-19T09:15:34.990Z,7.22
2018-12-19T09:18:03.043Z,7.21
2018-12-19T09:20:31.090Z,7.30
2018-12-19T09:22:59.276Z,7.26
2018-12-19T09:25:27.380Z,7.31
2018-12-19T09:27:55.487Z,7.27
2018-12-19T09:30:23.580Z,7.35
2018-12-19T09:32:52.641Z,7.36
2018-12-19T09:35:20.963Z,7.32
2018-12-19T09:37:48.999Z,7.35
2018-12-19T09:40:18.118Z,7.40
2018-12-19T09:42:46.275Z,7.42
2018-12-19T09:45:14.564Z,7.46
2018-12-19T09:47:43.211Z,7.48
2018-12-19T09:50:11.295Z,7.51
2018-12-19T09:52:39.364Z,7.49
2018-12-19T09:55:07.559Z,7.56
2018-12-19T09:57:36.631Z,7.68
2018-12-19T10:00:10.278Z,7.67
2018-12-19T10:02:39.782Z,7.66
2018-12-19T10:05:08.136Z,7.67
2018-12-19T10:07:36.220Z,7.58
2018-12-19T10:10:04.922Z,7.64
2018-12-19T10:12:33.126Z,7.69
2018-12-19T10:15:01.212Z,7.71
2018-12-19T10:17:29.391Z,7.72
2018-12-19T10:19:57.567Z,7.77
2018-12-19T10:22:27.619Z,7.78
2018-12-19T10:24:57.764Z,7.85
2018-12-19T10:27:25.830Z,8.08
2018-12-19T10:29:53.887Z,8.22
2018-12-19T10:32:21.972Z,8.40
2018-12-19T10:34:50.127Z,8.34
2018-12-19T10:37:18.653Z,8.29
2018-12-19T10:39:47.300Z,8.27
2018-12-19T10:42:15.410Z,8.22
2018-12-19T10:44:43.463Z,8.18
2018-12-19T10:47:11.563Z,8.15
2018-12-19T10:49:39.639Z,8.13
2018-12-19T10:52:07.756Z,8.17
2018-12-19T10:54:35.994Z,8.12
2018-12-19T10:57:04.183Z,8.16
2018-12-19T10:59:32.459Z,8.13
2018-12-19T11:02:00.596Z,8.16
2018-12-19T11:04:28.664Z,8.23
2018-12-19T11:06:56.789Z,8.32
2018-12-19T11:09:24.970Z,8.32
2018-12-19T11:11:53.064Z,8.53
2018-12-19T11:14:21.215Z,8.81
2018-12-19T11:16:49.403Z,8.97
2018-12-19T11:19:17.506Z,9.06
2018-12-19T11:21:45.819Z,9.39
2018-12-19T11:24:13.991Z,9.51
2018-12-19T11:26:42.367Z,9.50
2018-12-19T11:29:10.452Z,9.62
2018-12-19T11:31:38.638Z,9.66
2018-12-19T11:34:06.710Z,9.39
2018-12-19T11:36:34.779Z,9.65
2018-12-19T11:39:03.363Z,9.70
2018-12-19T11:41:31.439Z,9.73
2018-12-19T11:43:59.511Z,9.73
2018-12-19T11:46:27.591Z,9.46
2018-12-19T11:48:55.624Z,9.31
2018-12-19T11:51:23.941Z,9.21
2018-12-19T11:53:52.023Z,9.12
2018-12-19T11:56:20.250Z,9.33
2018-12-19T11:58:48.311Z,9.47
2018-12-19T12:01:16.426Z,9.43
2018-12-19T12:03:44.462Z,9.32
2018-12-19T12:06:12.535Z,9.17
2018-12-19T12:08:40.600Z,9.13
2018-12-19T12:11:08.898Z,9.11
2018-12-19T12:13:37.079Z,8.90
2018-12-19T12:16:05.359Z,8.83
2018-12-19T12:18:33.408Z,8.92
2018-12-19T12:21:01.481Z,8.93
2018-12-19T12:23:29.574Z,9.10
2018-12-19T12:25:57.743Z,9.18
2018-12-19T12:28:25.790Z,9.15
2018-12-19T12:30:53.888Z,9.21
2018-12-19T12:33:22.958Z,9.11
2018-12-19T12:35:51.383Z,9.04
2018-12-19T12:38:19.459Z,9.20
2018-12-19T12:40:47.527Z,9.17
2018-12-19T12:43:15.554Z,9.30
2018-12-19T12:45:43.639Z,9.42
2018-12-19T12:48:11.720Z,9.40
2018-12-19T12:50:39.790Z,9.52
2018-12-19T12:53:07.931Z,9.60
2018-12-19T12:55:35.995Z,9.62
2018-12-19T12:58:04.074Z,9.51
2018-12-19T13:00:32.132Z,9.41
2018-12-19T13:03:00.583Z,9.49
2018-12-19T13:05:28.650Z,9.47
2018-12-19T13:07:56.744Z,9.40
2018-12-19T13:10:24.778Z,9.35
2018-12-19T13:12:52.922Z,9.44
2018-12-19T13:15:22.850Z,9.44
2018-12-19T13:17:51.590Z,9.47
2018-12-19T13:20:19.661Z,9.28
2018-12-19T13:22:47.791Z,9.26
2018-12-19T13:25:15.850Z,9.33
2018-12-19T13:27:43.931Z,9.36
2018-12-19T13:30:11.983Z,9.33
2018-12-19T13:32:40.031Z,9.41
2018-12-19T13:35:08.203Z,9.44
2018-12-19T13:37:36.321Z,9.55
2018-12-19T13:40:05.511Z,9.67
2018-12-19T13:42:33.595Z,9.77
2018-12-19T13:45:01.671Z,9.76
2018-12-19T13:47:29.707Z,9.86
2018-12-19T13:49:57.763Z,9.81
2018-12-19T13:52:25.982Z,9.91
2018-12-19T13:54:54.038Z,10.28
2018-12-19T13:57:22.098Z,10.49
2018-12-19T13:59:50.160Z,10.43
2018-12-19T14:02:18.219Z,10.49
2018-12-19T14:04:46.789Z,10.50
2018-12-19T14:07:15.066Z,10.27
2018-12-19T14:09:43.119Z,10.07
2018-12-19T14:12:12.386Z,10.03
2018-12-19T14:14:40.879Z,10.04
2018-12-19T14:17:08.954Z,10.00
2018-12-19T14:19:37.187Z,9.92
2018-12-19T14:22:05.300Z,9.85
2018-12-19T14:24:33.342Z,9.83
2018-12-19T14:27:01.382Z,9.81
2018-12-19T14:29:29.476Z,9.86
2018-12-19T14:31:57.522Z,9.86
2018-12-19T14:34:25.603Z,9.67
2018-12-19T14:36:53.686Z,9.58
2018-12-19T14:39:21.860Z,9.34
2018-12-19T14:41:50.048Z,9.27
2018-12-19T14:44:18.206Z,9.29
2018-12-19T14:46:46.367Z,9.22
2018-12-19T14:49:14.479Z,9.18
2018-12-19T14:51:42.601Z,9.10
2018-12-19T14:54:10.710Z,8.98
2018-12-19T14:56:38.871Z,8.95
2018-12-19T14:59:06.945Z,8.91
2018-12-19T15:01:35.005Z,8.79
2018-12-19T15:04:03.136Z,8.71
2018-12-19T15:06:31.232Z,8.68
2018-12-19T15:08:59.256Z,8.68
2018-12-19T15:11:27.311Z,8.61
2018-12-19T15:13:55.407Z,8.60
2018-12-19T15:16:23.480Z,8.55
2018-12-19T15:18:51.631Z,8.49
2018-12-19T15:21:20.335Z,8.39
2018-12-19T15:23:48.406Z,8.44
2018-12-19T15:26:17.015Z,8.35
2018-12-19T15:28:45.122Z,8.37
2018-12-19T15:31:13.214Z,8.37
2018-12-19T15:33:41.295Z,8.35
2018-12-19T15:36:09.479Z,8.27
2018-12-19T15:38:37.555Z,8.22
2018-12-19T15:41:05.624Z,8.22
2018-12-19T15:43:33.711Z,8.24
2018-12-19T15:46:01.750Z,8.20
2018-12-19T15:48:29.790Z,8.15
2018-12-19T15:50:57.887Z,8.07
2018-12-19T15:53:25.967Z,7.95
2018-12-19T15:55:54.259Z,7.92
2018-12-19T15:58:22.334Z,7.78
2018-12-19T16:00:50.422Z,7.72
2018-12-19T16:03:18.575Z,7.68
2018-12-19T16:05:46.655Z,7.65
2018-12-19T16:08:14.715Z,7.65
2018-12-19T16:10:42.787Z,7.55
2018-12-19T16:13:11.246Z,7.45
2018-12-19T16:15:39.326Z,7.43
2018-12-19T16:18:07.411Z,7.35
2018-12-19T16:20:35.450Z,7.31
2018-12-19T16:23:03.574Z,7.07
2018-12-19T16:25:31.655Z,7.00
2018-12-19T16:27:59.690Z,7.07
2018-12-19T16:30:27.870Z,7.08
2018-12-19T16:32:55.938Z,7.10
2018-12-19T16:35:24.026Z,7.11
2018-12-19T16:37:52.165Z,7.14
2018-12-19T16:40:20.259Z,6.99
2018-12-19T16:42:48.310Z,7.04
2018-12-19T16:45:16.727Z,7.04
2018-12-19T16:47:44.987Z,7.04
2018-12-19T16:50:13.035Z,7.06
2018-12-19T16:52:41.110Z,7.13
2018-12-19T16:55:09.481Z,7.11
2018-12-19T16:57:37.534Z,7.05
2018-12-19T17:00:08.456Z,7.05
2018-12-19T17:02:36.574Z,7.02
2018-12-19T17:05:06.527Z,7.02
2018-12-19T17:07:34.596Z,7.04
2018-12-19T17:10:02.742Z,7.04
2018-12-19T17:12:30.798Z,7.05
2018-12-19T17:14:58.879Z,6.76
2018-12-19T17:17:27.134Z,6.84
2018-12-19T17:19:55.334Z,6.89
2018-12-19T17:22:23.415Z,6.90
2018-12-19T17:24:51.478Z,6.88
2018-12-19T17:27:19.567Z,6.72
2018-12-19T17:29:47.607Z,6.58
2018-12-19T17:32:15.758Z,6.58
2018-12-19T17:34:43.851Z,6.75
2018-12-19T17:37:12.318Z,6.70
2018-12-19T17:39:40.407Z,6.76
2018-12-19T17:42:08.478Z,6.94
2018-12-19T17:44:36.571Z,7.12
2018-12-19T17:47:04.641Z,7.27
2018-12-19T17:49:32.694Z,7.42
2018-12-19T17:52:00.752Z,7.46
2018-12-19T17:54:28.911Z,7.43
2018-12-19T17:56:56.983Z,7.42
2018-12-19T17:59:25.046Z,7.53
2018-12-19T18:01:53.243Z,7.61
2018-12-19T18:04:21.299Z,7.63
2018-12-19T18:06:49.351Z,7.67
2018-12-19T18:09:17.415Z,7.70
2018-12-19T18:11:45.559Z,7.78
2018-12-19T18:14:13.939Z,7.78
2018-12-19T18:16:41.987Z,7.80
2018-12-19T18:19:10.155Z,7.79
2018-12-19T18:21:38.359Z,7.77
2018-12-19T18:24:06.424Z,7.75
2018-12-19T18:26:34.503Z,7.78
2018-12-19T18:29:02.583Z,7.81
2018-12-19T18:31:30.618Z,7.81
2018-12-19T18:33:58.696Z,7.77
2018-12-19T18:36:26.990Z,7.74
2018-12-19T18:38:55.064Z,7.74
2018-12-19T18:41:23.098Z,7.78
2018-12-19T18:43:51.174Z,7.69
2018-12-19T18:46:19.225Z,7.66
2018-12-19T18:48:47.310Z,7.66
2018-12-19T18:51:15.399Z,7.67
2018-12-19T18:53:43.475Z,7.73
2018-12-19T18:56:11.520Z,7.71
2018-12-19T18:58:40.022Z,7.71
2018-12-19T19:01:08.347Z,7.72
2018-12-19T19:03:36.474Z,7.77
2018-12-19T19:06:04.683Z,7.86
2018-12-19T19:08:32.791Z,7.86
2018-12-19T19:11:00.891Z,7.90
2018-12-19T19:13:28.966Z,7.94
2018-12-19T19:15:57.165Z,7.84
2018-12-19T19:18:25.595Z,7.87
2018-12-19T19:20:53.878Z,7.88
2018-12-19T19:23:21.910Z,7.84
2018-12-19T19:25:49.950Z,7.86
2018-12-19T19:28:18.018Z,7.87
2018-12-19T19:30:46.152Z,7.88
2018-12-19T19:33:14.251Z,7.90
2018-12-19T19:35:42.347Z,7.86
2018-12-19T19:38:10.394Z,7.86
2018-12-19T19:40:38.462Z,7.81
2018-12-19T19:43:06.523Z,7.87
2018-12-19T19:45:34.646Z,7.88
2018-12-19T19:48:02.886Z,7.81
2018-12-19T19:50:30.943Z,7.78
2018-12-19T19:52:59.051Z,7.82
2018-12-19T19:55:27.098Z,7.76
2018-12-19T19:57:55.276Z,7.72
2018-12-19T20:00:25.290Z,7.74
2018-12-19T20:02:53.347Z,7.75
2018-12-19T20:05:21.527Z,7.75
2018-12-19T20:07:49.599Z,7.80
2018-12-19T20:10:17.646Z,7.80
2018-12-19T20:12:45.746Z,7.76
2018-12-19T20:15:13.850Z,7.71
2018-12-19T20:17:41.993Z,7.78
2018-12-19T20:20:10.047Z,7.74
2018-12-19T20:22:38.100Z,7.68
2018-12-19T20:25:06.335Z,7.61
2018-12-19T20:27:34.402Z,7.52
2018-12-19T20:30:02.735Z,7.41
2018-12-19T20:32:30.770Z,7.30
2018-12-19T20:34:58.824Z,7.25
2018-12-19T20:37:26.979Z,7.17
2018-12-19T20:39:55.051Z,7.25
2018-12-19T20:42:23.143Z,7.21
2018-12-19T20:44:51.206Z,7.22
2018-12-19T20:47:19.254Z,7.15
2018-12-19T20:49:47.463Z,7.15
2018-12-19T20:52:15.526Z,7.20
2018-12-19T20:54:43.807Z,7.25
2018-12-19T20:57:11.879Z,7.24
2018-12-19T20:59:39.965Z,7.24
2018-12-19T21:02:08.119Z,7.29
2018-12-19T21:04:36.282Z,7.34
2018-12-19T21:07:04.575Z,7.19
2018-12-19T21:09:32.654Z,7.17
2018-12-19T21:12:01.129Z,7.20
2018-12-19T21:14:29.203Z,7.21
2018-12-19T21:16:59.210Z,7.15
2018-12-19T21:19:27.307Z,7.22
2018-12-19T21:21:55.349Z,7.26
2018-12-19T21:24:24.615Z,7.22
2018-12-19T21:26:52.727Z,7.25
2018-12-19T21:29:20.802Z,7.32
2018-12-19T21:31:49.220Z,7.28
2018-12-19T21:34:17.263Z,7.28
2018-12-19T21:36:45.320Z,7.30
2018-12-19T21:39:13.425Z,7.37
2018-12-19T21:41:41.671Z,7.34
2018-12-19T21:44:09.745Z,7.38
2018-12-19T21:46:37.884Z,7.38
2018-12-19T21:49:06.078Z,7.31
2018-12-19T21:51:34.250Z,7.36
2018-12-19T21:54:02.385Z,7.43
2018-12-19T21:56:30.551Z,7.44
2018-12-19T21:58:58.606Z,7.44
2018-12-19T22:01:26.731Z,7.38
2018-12-19T22:03:54.846Z,7.37
2018-12-19T22:06:23.060Z,7.40
2018-12-19T22:08:52.186Z,7.39
2018-12-19T22:11:20.283Z,7.39
2018-12-19T22:13:48.333Z,7.40
2018-12-19T22:16:18.495Z,7.44
2018-12-19T22:18:47.286Z,7.49
2018-12-19T22:21:15.726Z,7.41
2018-12-19T22:23:43.794Z,7.47
2018-12-19T22:26:11.920Z,7.46
2018-12-19T22:28:40.024Z,7.51
2018-12-19T22:31:08.306Z,7.52
2018-12-19T22:33:36.580Z,7.49
2018-12-19T22:36:04.716Z,7.60
2018-12-19T22:38:32.850Z,7.67
2018-12-19T22:41:01.044Z,7.57
2018-12-19T22:43:29.186Z,7.58
2018-12-19T22:45:57.801Z,7.61
2018-12-19T22:48:25.936Z,7.69
2018-12-19T22:50:54.066Z,7.68
2018-12-19T22:53:22.150Z,7.70
2018-12-19T22:55:50.287Z,7.67
2018-12-19T22:58:18.529Z,7.67
2018-12-19T23:00:51.925Z,7.70
2018-12-19T23:03:21.912Z,7.72
2018-12-19T23:05:50.009Z,7.70
2018-12-19T23:08:18.906Z,7.72
2018-12-19T23:10:46.982Z,7.67
2018-12-19T23:13:15.432Z,7.68
2018-12-19T23:15:43.504Z,7.71
2018-12-19T23:18:13.720Z,7.63
2018-12-19T23:20:41.803Z,7.70
2018-12-19T23:23:09.893Z,7.66
2018-12-19T23:25:38.841Z,7.59
2018-12-19T23:28:06.942Z,7.57
2018-12-19T23:30:35.146Z,7.61
2018-12-19T23:33:03.420Z,7.64
2018-12-19T23:35:31.898Z,7.50
2018-12-19T23:38:00.054Z,7.53
2018-12-19T23:40:28.142Z,7.71
2018-12-19T23:42:56.183Z,7.67
2018-12-19T23:45:24.409Z,7.72
2018-12-19T23:47:52.582Z,7.70
2018-12-19T23:50:20.882Z,7.73
2018-12-19T23:52:49.114Z,7.86
2018-12-19T23:55:17.574Z,7.84
2018-12-19T23:57:45.647Z,7.83
